Time;durP1;ratioP1;P1;durP2;ratioP2;P2;SDS_P1;SDS_P2;PMS_P1;PMS_P2;Temp;Humidity;BMP_temperature;BMP_pressure;BME280_temperature;BME280_humidity;BME280_pressure;Samples;Min_cycle;Max_cycle;Signal;HPM_P1;HPM_P2
2022/06/26 00:00:19;;;;;;;9.77;6.75;;;18.20;99.90;;;;;;7341721;32;20130;-59
2022/06/26 00:04:21;;;;;;;6.25;5.28;;;18.20;99.90;;;;;;7343174;32;20129;-61
2022/06/26 00:08:25;;;;;;;7.30;6.25;;;18.10;99.90;;;;;;7344223;32;20134;-60
2022/06/26 00:12:27;;;;;;;8.63;6.80;;;18.20;99.90;;;;;;7347440;32;20138;-60
2022/06/26 00:16:28;;;;;;;8.05;7.28;;;18.20;99.90;;;;;;7338837;32;20242;-60
2022/06/26 00:20:31;;;;;;;8.73;7.37;;;18.20;99.90;;;;;;7343439;32;20778;-60
2022/06/26 00:24:34;;;;;;;10.98;7.80;;;18.00;99.90;;;;;;7345035;32;20269;-60
2022/06/26 00:28:36;;;;;;;11.45;8.23;;;17.90;99.90;;;;;;7338459;32;20135;-60
2022/06/26 00:32:37;;;;;;;9.07;7.65;;;17.80;99.90;;;;;;7341204;32;20142;-60
2022/06/26 00:36:39;;;;;;;10.05;7.87;;;17.60;99.90;;;;;;7341403;32;20112;-61
2022/06/26 00:40:42;;;;;;;8.00;7.20;;;17.60;99.90;;;;;;7340040;32;20838;-60
2022/06/26 00:44:44;;;;;;;9.15;8.02;;;17.60;99.90;;;;;;7340109;32;20906;-61
2022/06/26 00:48:46;;;;;;;9.23;8.32;;;17.60;99.90;;;;;;7340749;32;20153;-60
2022/06/26 00:52:48;;;;;;;8.30;7.35;;;17.60;99.90;;;;;;7339616;32;20557;-60
2022/06/26 00:56:50;;;;;;;7.35;6.65;;;17.60;99.90;;;;;;7340640;32;20114;-60
2022/06/26 01:00:51;;;;;;;12.55;8.40;;;17.50;99.90;;;;;;7342823;32;20636;-60
2022/06/26 01:04:53;;;;;;;10.18;7.75;;;17.40;99.90;;;;;;7343295;32;20111;-59
2022/06/26 01:08:56;;;;;;;8.55;7.60;;;17.30;99.90;;;;;;7337540;32;20116;-59
2022/06/26 01:13:00;;;;;;;8.20;7.40;;;17.30;99.90;;;;;;7342970;32;20492;-59
2022/06/26 01:17:02;;;;;;;9.82;7.53;;;17.30;99.90;;;;;;7341154;32;20127;-59
2022/06/26 01:21:03;;;;;;;8.65;7.85;;;17.30;99.90;;;;;;7345596;32;20226;-58
2022/06/26 01:25:05;;;;;;;10.50;9.50;;;17.30;99.90;;;;;;7343116;32;20194;-59
2022/06/26 01:29:07;;;;;;;10.55;9.55;;;17.40;99.90;;;;;;7342780;32;20558;-59
2022/06/26 01:33:09;;;;;;;9.82;8.63;;;17.40;99.90;;;;;;7343183;32;20130;-59
2022/06/26 01:37:11;;;;;;;11.45;10.25;;;17.30;99.90;;;;;;7344236;32;20203;-63
2022/06/26 01:41:13;;;;;;;11.45;10.30;;;17.30;99.90;;;;;;7346274;32;20108;-59
2022/06/26 01:45:14;;;;;;;15.05;11.10;;;17.20;99.90;;;;;;7342478;32;20214;-59
2022/06/26 01:49:16;;;;;;;12.90;11.52;;;17.10;99.90;;;;;;7341679;32;20186;-59
2022/06/26 01:53:18;;;;;;;13.05;11.75;;;17.10;99.90;;;;;;7343141;32;20162;-58
2022/06/26 01:57:19;;;;;;;13.43;11.35;;;17.10;99.90;;;;;;7344386;32;20115;-59
2022/06/26 02:01:21;;;;;;;12.82;11.60;;;17.00;99.90;;;;;;7338080;32;20249;-59
2022/06/26 02:05:23;;;;;;;11.98;10.85;;;17.00;99.90;;;;;;7341000;32;20363;-58
2022/06/26 02:13:46;;;;;;;14.18;12.68;;;16.90;99.90;;;;;;7342292;32;20202;-58
2022/06/26 02:17:47;;;;;;;12.43;11.23;;;17.00;99.90;;;;;;7341449;32;20343;-60
2022/06/26 02:21:49;;;;;;;13.40;12.00;;;17.10;99.90;;;;;;7338013;32;20129;-59
2022/06/26 02:25:51;;;;;;;12.85;11.60;;;17.20;99.90;;;;;;7340767;32;20143;-59
2022/06/26 02:29:52;;;;;;;15.32;13.25;;;17.10;99.90;;;;;;7340196;32;20195;-58
2022/06/26 02:33:54;;;;;;;14.70;13.20;;;17.10;99.90;;;;;;7340999;32;20559;-60
2022/06/26 02:37:57;;;;;;;16.83;15.07;;;17.10;99.90;;;;;;7338683;32;20510;-60
2022/06/26 02:41:58;;;;;;;16.58;14.87;;;17.10;99.90;;;;;;7342782;32;20115;-60
2022/06/26 02:46:00;;;;;;;16.60;14.80;;;17.10;99.90;;;;;;7343063;32;20783;-59
2022/06/26 02:50:03;;;;;;;16.52;14.63;;;17.00;99.90;;;;;;7340567;32;20115;-58
2022/06/26 02:54:05;;;;;;;16.90;15.07;;;17.00;99.90;;;;;;7340654;32;20701;-58
2022/06/26 02:58:06;;;;;;;21.10;15.60;;;17.00;99.90;;;;;;7339066;32;20166;-58
2022/06/26 03:02:08;;;;;;;18.90;17.00;;;16.90;99.90;;;;;;7345019;32;20109;-58
2022/06/26 03:06:10;;;;;;;18.10;16.30;;;16.90;99.90;;;;;;7337057;32;20099;-58
2022/06/26 03:10:11;;;;;;;16.37;14.68;;;16.80;99.90;;;;;;7341382;32;20570;-58
2022/06/26 03:14:13;;;;;;;20.83;15.48;;;16.70;99.90;;;;;;7345796;32;20138;-59
2022/06/26 03:18:15;;;;;;;17.73;15.20;;;16.70;99.90;;;;;;7339730;32;20194;-59
2022/06/26 03:22:17;;;;;;;17.48;15.65;;;16.60;99.90;;;;;;7340567;32;20544;-59
2022/06/26 03:26:18;;;;;;;21.62;15.88;;;16.60;99.90;;;;;;7338714;32;20134;-59
2022/06/26 03:30:20;;;;;;;18.75;16.12;;;16.70;99.90;;;;;;7343864;32;20130;-59
2022/06/26 03:34:22;;;;;;;18.48;16.25;;;16.70;99.90;;;;;;7337751;32;20131;-59
2022/06/26 03:38:24;;;;;;;16.17;14.32;;;16.80;99.90;;;;;;7344540;32;20114;-59
2022/06/26 03:42:25;;;;;;;15.13;13.50;;;16.90;99.90;;;;;;7340180;32;20237;-59
2022/06/26 03:46:27;;;;;;;15.40;13.80;;;16.80;99.90;;;;;;7341115;32;20119;-59
2022/06/26 03:50:29;;;;;;;16.08;14.40;;;16.80;99.90;;;;;;7343930;32;20271;-59
2022/06/26 03:54:32;;;;;;;14.57;13.07;;;16.80;99.90;;;;;;7341872;32;20438;-59
2022/06/26 03:58:34;;;;;;;15.38;12.82;;;16.80;99.90;;;;;;7342362;32;20141;-59
2022/06/26 04:02:37;;;;;;;16.08;13.18;;;16.80;99.90;;;;;;7342146;32;20237;-59
2022/06/26 04:06:39;;;;;;;16.83;14.70;;;16.80;99.90;;;;;;7345695;32;20119;-59
2022/06/26 04:10:41;;;;;;;15.23;12.93;;;16.80;99.90;;;;;;7343750;32;20150;-58
2022/06/26 04:14:42;;;;;;;13.98;12.48;;;16.90;99.90;;;;;;7337869;32;20198;-58
2022/06/26 04:18:44;;;;;;;13.45;10.60;;;17.00;99.90;;;;;;7340453;32;20165;-58
2022/06/26 04:23:10;;;;;;;12.98;9.65;;;17.10;99.90;;;;;;7339711;32;20233;-58
2022/06/26 04:27:12;;;;;;;11.80;9.52;;;17.20;99.90;;;;;;7341775;32;20107;-58
2022/06/26 04:31:13;;;;;;;9.93;8.88;;;17.20;99.90;;;;;;7339821;32;20181;-58
2022/06/26 04:35:15;;;;;;;9.85;7.80;;;17.30;99.90;;;;;;7336406;32;20213;-59
2022/06/26 04:39:17;;;;;;;8.43;7.40;;;17.30;99.90;;;;;;7342561;32;20139;-59
2022/06/26 04:43:19;;;;;;;9.63;8.70;;;17.20;99.90;;;;;;7337059;32;20468;-58
2022/06/26 04:47:21;;;;;;;8.48;7.30;;;17.20;99.90;;;;;;7337351;32;21571;-58
2022/06/26 04:51:22;;;;;;;10.50;6.32;;;17.20;99.90;;;;;;7336890;32;20119;-58
2022/06/26 04:55:24;;;;;;;7.47;5.35;;;17.10;99.90;;;;;;7335570;32;20150;-58
2022/06/26 04:59:25;;;;;;;7.37;5.35;;;17.10;99.90;;;;;;7334671;32;20308;-58
2022/06/26 05:03:27;;;;;;;8.23;5.47;;;17.10;99.90;;;;;;7338261;32;20134;-58
2022/06/26 05:07:32;;;;;;;7.15;5.68;;;17.00;99.90;;;;;;7338249;32;20136;-58
2022/06/26 05:11:34;;;;;;;7.62;5.05;;;17.10;99.90;;;;;;7338717;32;20445;-58
2022/06/26 05:15:36;;;;;;;8.23;5.37;;;17.00;99.90;;;;;;7337715;32;20311;-59
2022/06/26 05:19:38;;;;;;;7.35;4.37;;;17.00;99.90;;;;;;7336179;32;20571;-58
2022/06/26 05:23:40;;;;;;;5.30;3.33;;;16.90;99.90;;;;;;7342716;32;20134;-58
2022/06/26 05:27:41;;;;;;;4.72;2.28;;;16.90;99.90;;;;;;7336120;32;20162;-58
2022/06/26 05:31:43;;;;;;;3.95;2.42;;;17.00;99.90;;;;;;7341979;32;20107;-58
2022/06/26 05:35:45;;;;;;;11.52;2.35;;;17.10;99.90;;;;;;7342320;32;20137;-58
2022/06/26 05:39:46;;;;;;;4.35;2.10;;;17.40;99.90;;;;;;7341426;32;20238;-58
2022/06/26 05:43:48;;;;;;;4.43;2.15;;;18.30;99.90;;;;;;7338832;32;20116;-62
2022/06/26 05:47:50;;;;;;;3.53;1.70;;;18.40;99.90;;;;;;7335822;32;20111;-63
2022/06/26 05:51:51;;;;;;;5.03;2.00;;;18.40;99.90;;;;;;7341588;32;20133;-63
2022/06/26 05:55:53;;;;;;;3.20;2.10;;;18.30;99.90;;;;;;7344820;32;20790;-64
2022/06/26 05:59:55;;;;;;;5.53;2.08;;;18.10;99.90;;;;;;7344009;32;20123;-60
2022/06/26 06:03:56;;;;;;;5.90;2.28;;;18.00;99.90;;;;;;7347814;32;20297;-59
2022/06/26 06:07:59;;;;;;;4.93;1.83;;;17.90;99.90;;;;;;7346506;32;20122;-60
2022/06/26 06:12:01;;;;;;;5.25;2.12;;;17.80;99.90;;;;;;7344393;32;20474;-60
2022/06/26 06:16:04;;;;;;;3.72;1.85;;;17.70;99.90;;;;;;7342817;32;20158;-60
2022/06/26 06:20:12;;;;;;;4.10;1.55;;;17.40;99.90;;;;;;7347094;32;20243;-61
2022/06/26 06:24:14;;;;;;;;;;;17.50;99.90;;;;;;7338358;32;20217;-62
2022/06/26 06:28:15;;;;;;;4.60;2.45;;;17.30;99.90;;;;;;7348716;32;20549;-62
2022/06/26 06:32:17;;;;;;;5.12;2.22;;;17.20;99.90;;;;;;7341450;32;20126;-66
2022/06/26 06:36:19;;;;;;;4.18;2.53;;;17.30;99.90;;;;;;7339426;32;20129;-64
2022/06/26 06:40:20;;;;;;;5.25;2.03;;;17.40;99.90;;;;;;7334992;32;20244;-64
2022/06/26 06:44:22;;;;;;;5.80;2.25;;;17.70;99.90;;;;;;7341578;32;20114;-64
2022/06/26 06:48:24;;;;;;;4.72;2.35;;;18.40;99.90;;;;;;7345257;32;20236;-64
2022/06/26 06:52:26;;;;;;;5.80;2.60;;;19.30;99.90;;;;;;7343859;32;20138;-63
2022/06/26 06:56:28;;;;;;;3.90;2.20;;;19.60;99.90;;;;;;7344483;32;20150;-58
2022/06/26 07:00:30;;;;;;;3.08;2.03;;;20.00;99.90;;;;;;7341797;32;20262;-57
2022/06/26 07:04:31;;;;;;;6.03;2.40;;;20.60;99.90;;;;;;7342228;32;20178;-58
2022/06/26 07:08:33;;;;;;;5.22;2.30;;;20.40;99.90;;;;;;7345454;32;20255;-57
2022/06/26 07:12:36;;;;;;;4.87;2.37;;;19.90;99.90;;;;;;7340291;32;20111;-57
2022/06/26 07:16:38;;;;;;;4.97;2.05;;;19.50;99.90;;;;;;7336579;32;20241;-58
2022/06/26 07:20:39;;;;;;;3.92;2.00;;;19.20;99.90;;;;;;7345639;32;20216;-57
2022/06/26 07:24:42;;;;;;;4.03;2.20;;;19.40;99.90;;;;;;7339846;32;20119;-57
2022/06/26 07:28:43;;;;;;;4.80;2.05;;;19.00;99.90;;;;;;7339338;32;20337;-58
2022/06/26 07:32:45;;;;;;;6.35;2.40;;;18.80;99.90;;;;;;7338941;32;20138;-58
2022/06/26 07:36:49;;;;;;;3.85;2.33;;;18.80;99.90;;;;;;7339072;32;20696;-58
2022/06/26 07:40:51;;;;;;;2.72;1.50;;;18.60;99.90;;;;;;7338264;32;20213;-58
2022/06/26 07:44:53;;;;;;;4.97;2.00;;;18.60;99.90;;;;;;7338628;32;20137;-59
2022/06/26 07:48:55;;;;;;;3.45;1.52;;;18.70;99.90;;;;;;7338662;32;20111;-58
2022/06/26 07:52:56;;;;;;;3.35;1.60;;;18.80;99.90;;;;;;7339306;32;20340;-58
2022/06/26 07:56:58;;;;;;;2.97;1.42;;;19.00;99.90;;;;;;7345706;32;20260;-59
2022/06/26 08:01:00;;;;;;;2.58;1.40;;;19.10;99.90;;;;;;7334966;32;20131;-57
2022/06/26 08:05:02;;;;;;;4.35;1.62;;;19.30;99.90;;;;;;7334869;32;20157;-58
2022/06/26 08:09:04;;;;;;;2.75;1.30;;;19.40;99.90;;;;;;7340840;32;20167;-58
2022/06/26 08:13:07;;;;;;;4.65;1.50;;;19.30;99.90;;;;;;7342870;32;20138;-58
2022/06/26 08:17:08;;;;;;;3.53;1.48;;;19.50;99.90;;;;;;7337837;32;20489;-58
2022/06/26 08:25:31;;;;;;;4.50;1.35;;;20.30;99.90;;;;;;7341352;32;20112;-64
2022/06/26 08:29:33;;;;;;;2.03;1.23;;;20.60;99.90;;;;;;7330796;32;20234;-64
2022/06/26 08:33:34;;;;;;;4.28;1.45;;;20.70;99.90;;;;;;7338489;32;20114;-64
2022/06/26 08:37:36;;;;;;;5.03;1.70;;;20.70;99.90;;;;;;7334057;32;20228;-64
2022/06/26 08:41:41;;;;;;;5.93;1.30;;;20.60;99.90;;;;;;7338183;32;20623;-64
2022/06/26 08:45:44;;;;;;;2.87;1.40;;;20.70;99.90;;;;;;7335503;32;20162;-64
2022/06/26 08:49:47;;;;;;;2.70;1.35;;;20.70;99.90;;;;;;7338840;32;20173;-64
2022/06/26 08:53:51;;;;;;;3.72;1.25;;;20.80;99.90;;;;;;7338106;32;20107;-65
2022/06/26 08:57:53;;;;;;;1.95;1.00;;;20.70;99.90;;;;;;7339251;32;20237;-62
2022/06/26 09:01:55;;;;;;;2.22;0.90;;;20.90;99.90;;;;;;7330298;32;20103;-62
2022/06/26 09:05:57;;;;;;;2.83;1.00;;;21.30;99.90;;;;;;7340370;32;20213;-64
2022/06/26 09:10:09;;;;;;;2.08;0.93;;;21.80;99.90;;;;;;7338723;32;20107;-61
2022/06/26 09:14:13;;;;;;;1.87;1.10;;;21.80;99.90;;;;;;7345028;32;20107;-63
2022/06/26 09:18:15;;;;;;;2.47;1.20;;;21.90;99.90;;;;;;7338526;32;20674;-63
2022/06/26 09:22:17;;;;;;;2.75;1.15;;;21.90;99.90;;;;;;7336146;32;20234;-64
2022/06/26 09:26:19;;;;;;;2.28;1.10;;;22.10;99.90;;;;;;7339652;32;20157;-64
2022/06/26 09:30:20;;;;;;;3.08;1.30;;;22.00;99.90;;;;;;7343300;32;20659;-62
2022/06/26 09:34:26;;;;;;;3.30;0.93;;;22.00;99.90;;;;;;7345634;32;20245;-62
2022/06/26 09:38:33;;;;;;;2.67;1.00;;;22.10;99.90;;;;;;7346246;32;20122;-62
2022/06/26 09:42:35;;;;;;;;;;;22.40;99.90;;;;;;7339366;32;20521;-65
2022/06/26 09:46:38;;;;;;;3.03;1.02;;;22.70;99.90;;;;;;7345900;32;20010;-64
2022/06/26 09:50:41;;;;;;;2.00;1.12;;;23.00;99.90;;;;;;7341582;32;20137;-58
2022/06/26 09:54:44;;;;;;;1.62;0.95;;;23.50;99.90;;;;;;7346487;32;20445;-65
2022/06/26 09:58:46;;;;;;;2.75;1.17;;;24.30;99.90;;;;;;7339024;32;20563;-67
2022/06/26 10:07:09;;;;;;;1.55;0.95;;;23.80;99.90;;;;;;7344579;32;20138;-64
2022/06/26 10:11:12;;;;;;;2.58;1.05;;;23.30;99.90;;;;;;7337596;32;20131;-65
2022/06/26 10:15:16;;;;;;;1.42;0.77;;;23.20;99.90;;;;;;7338466;32;20125;-66
2022/06/26 10:19:45;;;;;;;1.40;0.80;;;23.40;99.90;;;;;;7348839;32;20127;-63
2022/06/26 10:23:47;;;;;;;1.58;0.85;;;23.20;99.90;;;;;;7347429;32;20210;-64
2022/06/26 10:27:49;;;;;;;2.92;1.00;;;23.20;99.90;;;;;;7340350;32;20100;-64
2022/06/26 10:31:50;;;;;;;3.17;0.98;;;23.00;99.90;;;;;;7342233;32;20127;-64
2022/06/26 10:35:54;;;;;;;4.37;0.73;;;22.40;99.90;;;;;;7346235;32;20253;-64
2022/06/26 10:39:57;;;;;;;2.85;0.90;;;22.10;99.90;;;;;;7342192;32;20128;-64
2022/06/26 10:44:15;;;;;;;2.90;0.93;;;22.10;99.90;;;;;;7344434;32;20119;-64
2022/06/26 10:48:21;;;;;;;2.17;1.12;;;21.80;99.90;;;;;;7349027;32;20810;-66
2022/06/26 10:52:28;;;;;;;3.17;1.00;;;21.80;99.90;;;;;;7343937;32;20191;-64
2022/06/26 10:56:30;;;;;;;2.80;1.00;;;21.60;99.90;;;;;;7342872;32;20115;-65
2022/06/26 11:00:31;;;;;;;5.87;1.10;;;21.50;99.90;;;;;;7340060;32;20149;-65
2022/06/26 11:04:46;;;;;;;1.95;0.95;;;21.50;99.90;;;;;;7343974;32;20444;-65
2022/06/26 11:08:50;;;;;;;3.50;1.10;;;21.40;99.90;;;;;;7336536;32;20582;-65
2022/06/26 11:12:53;;;;;;;1.58;1.00;;;21.50;99.90;;;;;;7344035;32;20119;-65
2022/06/26 11:16:55;;;;;;;2.20;0.77;;;21.40;99.90;;;;;;7341769;32;20225;-64
2022/06/26 11:20:57;;;;;;;1.85;0.98;;;21.50;99.90;;;;;;7345894;32;20451;-65
2022/06/26 11:24:58;;;;;;;3.15;0.90;;;21.50;99.90;;;;;;7342217;32;20155;-65
2022/06/26 11:29:03;;;;;;;2.50;0.90;;;21.60;99.90;;;;;;7342833;32;20107;-64
2022/06/26 11:33:06;;;;;;;1.60;0.80;;;21.60;99.90;;;;;;7345826;32;20130;-64
2022/06/26 11:37:08;;;;;;;3.35;0.93;;;21.60;99.90;;;;;;7344616;32;20484;-65
2022/06/26 11:41:10;;;;;;;1.75;0.77;;;21.70;99.90;;;;;;7342461;32;20112;-65
2022/06/26 11:45:24;;;;;;;2.47;0.93;;;21.60;99.90;;;;;;7340566;32;20119;-65
2022/06/26 11:49:26;;;;;;;2.97;1.10;;;21.60;99.90;;;;;;7338783;32;20447;-65
2022/06/26 11:53:29;;;;;;;2.03;0.90;;;21.60;99.90;;;;;;7339896;32;20199;-64
2022/06/26 11:57:31;;;;;;;2.92;0.93;;;21.30;99.90;;;;;;7340492;32;21228;-65
2022/06/26 12:01:36;;;;;;;2.45;0.80;;;21.30;99.90;;;;;;7339426;32;20126;-66
2022/06/26 12:05:40;;;;;;;2.50;0.93;;;21.10;99.90;;;;;;7342405;32;20270;-67
2022/06/26 12:09:41;;;;;;;2.28;1.12;;;21.00;99.90;;;;;;7348803;32;20444;-65
2022/06/26 12:13:43;;;;;;;3.37;1.27;;;20.70;99.90;;;;;;7344605;32;20103;-65
2022/06/26 12:17:54;;;;;;;3.60;1.50;;;20.50;99.90;;;;;;7336818;32;20225;-66
2022/06/26 12:21:56;;;;;;;3.85;1.45;;;20.40;99.90;;;;;;7342986;32;20534;-65
2022/06/26 12:26:06;;;;;;;4.87;1.40;;;20.20;99.90;;;;;;7333282;32;20112;-65
2022/06/26 12:30:18;;;;;;;4.20;1.50;;;20.20;99.90;;;;;;7341160;32;20150;-65
2022/06/26 12:34:28;;;;;;;4.25;1.20;;;20.30;99.90;;;;;;7339540;32;20183;-65
2022/06/26 12:38:34;;;;;;;5.05;1.48;;;20.30;99.90;;;;;;7343708;32;20134;-65
2022/06/26 12:42:35;;;;;;;4.57;1.20;;;20.40;99.90;;;;;;7343008;32;20107;-59
2022/06/26 12:46:37;;;;;;;3.03;1.50;;;20.40;99.90;;;;;;7341475;32;20804;-59
2022/06/26 12:50:39;;;;;;;3.42;1.50;;;20.50;99.90;;;;;;7341358;32;20478;-60
2022/06/26 12:54:41;;;;;;;4.40;1.12;;;20.40;99.90;;;;;;7336916;32;20206;-60
2022/06/26 12:58:43;;;;;;;3.53;1.27;;;20.40;99.90;;;;;;7340062;32;20157;-60
2022/06/26 13:02:45;;;;;;;4.22;1.45;;;20.30;99.90;;;;;;7339635;32;20201;-62
2022/06/26 13:06:46;;;;;;;2.90;1.20;;;20.20;99.90;;;;;;7344200;32;20192;-60
2022/06/26 13:10:48;;;;;;;2.65;1.48;;;20.30;99.90;;;;;;7345302;32;20111;-60
2022/06/26 13:14:50;;;;;;;5.30;2.33;;;20.30;99.90;;;;;;7347385;32;20241;-60
2022/06/26 13:18:52;;;;;;;6.20;1.30;;;20.30;99.90;;;;;;7339331;32;20229;-60
2022/06/26 13:22:54;;;;;;;3.92;1.40;;;20.30;99.90;;;;;;7342274;32;20204;-60
2022/06/26 13:26:55;;;;;;;4.45;1.42;;;20.30;99.90;;;;;;7348174;32;20110;-60
2022/06/26 13:30:57;;;;;;;4.05;1.62;;;20.40;99.90;;;;;;7347191;32;20631;-60
2022/06/26 13:34:59;;;;;;;7.28;1.55;;;20.40;99.90;;;;;;7345051;32;20155;-59
2022/06/26 13:39:02;;;;;;;3.72;1.80;;;20.80;99.90;;;;;;7334337;32;20162;-60
2022/06/26 13:43:04;;;;;;;3.35;1.40;;;20.90;99.90;;;;;;7349341;32;20148;-60
2022/06/26 13:47:06;;;;;;;3.60;1.30;;;20.80;99.90;;;;;;7340378;32;20135;-60
2022/06/26 13:51:08;;;;;;;4.37;1.67;;;20.80;99.90;;;;;;7346772;32;20194;-60
2022/06/26 13:55:10;;;;;;;2.40;1.20;;;20.70;99.90;;;;;;7343208;32;20213;-61
2022/06/26 13:59:12;;;;;;;3.53;1.40;;;20.90;99.90;;;;;;7342671;32;20138;-60
2022/06/26 14:03:14;;;;;;;4.15;1.27;;;21.00;99.90;;;;;;7340729;32;20428;-61
2022/06/26 14:07:16;;;;;;;1.85;1.17;;;21.00;99.90;;;;;;7342061;32;20107;-61
2022/06/26 14:11:17;;;;;;;2.83;1.30;;;20.90;99.90;;;;;;7348588;32;20255;-60
2022/06/26 14:15:19;;;;;;;2.12;1.12;;;20.80;99.90;;;;;;7335864;32;20103;-61
2022/06/26 14:19:21;;;;;;;4.15;1.10;;;20.50;99.90;;;;;;7348585;32;20115;-60
2022/06/26 14:27:43;;;;;;;3.55;1.58;;;20.30;99.90;;;;;;7336839;32;20109;-61
2022/06/26 14:31:45;;;;;;;2.62;1.40;;;20.20;99.90;;;;;;7345638;32;20100;-60
2022/06/26 14:36:07;;;;;;;3.25;1.33;;;20.00;99.90;;;;;;7347141;32;20126;-59
2022/06/26 14:40:11;;;;;;;3.25;1.50;;;19.80;99.90;;;;;;7348219;32;20115;-60
2022/06/26 14:44:12;;;;;;;2.15;1.30;;;19.80;99.90;;;;;;7334705;32;20530;-60
2022/06/26 14:48:14;;;;;;;3.55;1.50;;;19.70;99.90;;;;;;7342252;32;20161;-61
2022/06/26 14:52:16;;;;;;;4.07;1.70;;;19.60;99.90;;;;;;7343823;32;20143;-62
2022/06/26 14:56:17;;;;;;;3.47;1.30;;;19.60;99.90;;;;;;7341590;32;20194;-62
2022/06/26 15:00:19;;;;;;;3.50;1.50;;;19.60;99.90;;;;;;7340835;32;20126;-63
2022/06/26 15:04:21;;;;;;;3.35;1.40;;;19.50;99.90;;;;;;7338821;32;20821;-60
2022/06/26 15:08:23;;;;;;;2.30;1.08;;;19.40;99.90;;;;;;7342550;32;20129;-61
2022/06/26 15:12:25;;;;;;;2.90;1.25;;;19.30;99.90;;;;;;7342815;32;20471;-60
2022/06/26 15:16:27;;;;;;;2.87;1.30;;;19.30;99.90;;;;;;7338493;32;20142;-61
2022/06/26 15:20:29;;;;;;;3.90;1.25;;;19.30;99.90;;;;;;7344702;32;20755;-60
2022/06/26 15:24:31;;;;;;;4.10;1.30;;;19.40;99.90;;;;;;7341908;32;20224;-60
2022/06/26 15:28:33;;;;;;;2.90;1.23;;;19.40;99.90;;;;;;7343093;32;20931;-60
2022/06/26 15:32:34;;;;;;;2.22;1.20;;;19.40;99.90;;;;;;7339684;32;20106;-60
2022/06/26 15:36:37;;;;;;;2.85;1.58;;;19.40;99.90;;;;;;7339680;32;20310;-59
2022/06/26 15:40:38;;;;;;;3.45;1.70;;;19.30;99.90;;;;;;7340725;32;20179;-60
2022/06/26 15:44:40;;;;;;;2.05;1.30;;;19.30;99.90;;;;;;7343961;32;20565;-60
2022/06/26 15:48:43;;;;;;;3.28;1.65;;;19.30;99.90;;;;;;7339201;32;20413;-65
2022/06/26 15:52:45;;;;;;;1.95;0.95;;;19.20;99.90;;;;;;7345080;32;20170;-66
2022/06/26 15:56:46;;;;;;;3.33;1.05;;;19.20;99.90;;;;;;7340508;32;20244;-64
2022/06/26 16:00:55;;;;;;;6.12;1.42;;;19.20;99.90;;;;;;7344732;32;20122;-64
2022/06/26 16:04:57;;;;;;;3.70;2.10;;;19.10;99.90;;;;;;7342407;32;20193;-64
2022/06/26 16:08:59;;;;;;;2.65;1.60;;;19.10;99.90;;;;;;7344711;32;20483;-65
2022/06/26 16:13:01;;;;;;;11.02;9.65;;;19.00;99.90;;;;;;7345965;32;20420;-60
2022/06/26 16:17:23;;;;;;;4.55;2.12;;;19.10;99.90;;;;;;7344832;32;20488;-61
2022/06/26 16:21:24;;;;;;;5.20;2.83;;;19.20;99.90;;;;;;7343166;32;20150;-60
2022/06/26 16:29:47;;;;;;;2.55;1.80;;;19.20;99.90;;;;;;7345422;32;20092;-60
2022/06/26 16:33:50;;;;;;;3.30;2.25;;;19.40;99.90;;;;;;7345293;32;20832;-60
2022/06/26 16:37:53;;;;;;;3.90;1.85;;;19.50;99.90;;;;;;7338593;32;20216;-60
2022/06/26 16:41:55;;;;;;;4.25;2.20;;;19.50;99.90;;;;;;7342852;32;20123;-59
2022/06/26 16:45:56;;;;;;;7.62;4.43;;;19.40;99.90;;;;;;7342024;32;20200;-60
2022/06/26 16:49:58;;;;;;;5.30;1.75;;;19.50;99.90;;;;;;7337570;32;20237;-61
2022/06/26 16:54:00;;;;;;;4.22;1.50;;;19.40;99.90;;;;;;7342099;32;20828;-60
2022/06/26 16:58:02;;;;;;;4.43;1.58;;;19.40;99.90;;;;;;7345268;32;20182;-62
2022/06/26 17:02:04;;;;;;;4.70;1.73;;;19.40;99.90;;;;;;7345756;32;20111;-61
2022/06/26 17:06:06;;;;;;;6.15;1.52;;;19.40;99.90;;;;;;7343474;32;20150;-62
2022/06/26 17:10:08;;;;;;;3.67;1.58;;;19.40;99.90;;;;;;7344692;32;20129;-64
2022/06/26 17:14:11;;;;;;;3.00;1.95;;;19.40;99.90;;;;;;7342008;32;20107;-63
2022/06/26 17:18:12;;;;;;;5.30;4.30;;;19.40;99.90;;;;;;7338426;32;20130;-63
2022/06/26 17:22:14;;;;;;;3.08;1.55;;;19.40;99.90;;;;;;7328868;32;20423;-63
2022/06/26 17:26:16;;;;;;;2.62;1.20;;;19.50;99.90;;;;;;7345419;32;20115;-60
2022/06/26 17:30:18;;;;;;;2.95;1.10;;;19.70;99.90;;;;;;7339605;32;20114;-62
2022/06/26 17:34:20;;;;;;;2.85;1.33;;;19.80;99.90;;;;;;7343714;32;20183;-65
2022/06/26 17:38:22;;;;;;;1.55;1.15;;;19.80;99.90;;;;;;7342147;32;20165;-65
2022/06/26 17:42:24;;;;;;;3.95;1.40;;;19.60;99.90;;;;;;7340326;32;20253;-65
2022/06/26 17:46:30;;;;;;;2.97;1.10;;;19.60;99.90;;;;;;7339305;32;20221;-71
2022/06/26 17:50:34;;;;;;;1.65;1.00;;;19.60;99.90;;;;;;7344464;32;20133;-69
2022/06/26 17:54:36;;;;;;;4.53;1.92;;;19.60;99.90;;;;;;7343448;32;20104;-69
2022/06/26 17:58:37;;;;;;;2.35;1.87;;;19.60;99.90;;;;;;7342142;32;20234;-65
2022/06/26 18:02:39;;;;;;;2.20;1.40;;;19.60;99.90;;;;;;7346741;32;20143;-64
2022/06/26 18:06:41;;;;;;;2.67;1.15;;;19.50;99.90;;;;;;7346618;32;20264;-64
2022/06/26 18:10:43;;;;;;;4.18;1.90;;;19.40;99.90;;;;;;7340151;32;20390;-64
2022/06/26 18:14:45;;;;;;;2.55;1.70;;;19.30;99.90;;;;;;7343079;32;20130;-65
2022/06/26 18:18:46;;;;;;;6.03;2.83;;;19.30;99.90;;;;;;7340981;32;20225;-69
2022/06/26 18:22:56;;;;;;;4.82;2.60;;;19.10;99.90;;;;;;7336857;32;20103;-70
2022/06/26 18:26:58;;;;;;;4.70;1.73;;;19.00;99.90;;;;;;7335713;32;20130;-71
2022/06/26 18:31:01;;;;;;;3.45;1.48;;;18.90;99.90;;;;;;7339558;32;20107;-70
2022/06/26 18:35:03;;;;;;;6.60;2.00;;;18.80;99.90;;;;;;7350623;32;20132;-69
2022/06/26 18:39:05;;;;;;;5.10;2.30;;;18.90;99.90;;;;;;7347576;32;20119;-68
2022/06/26 18:43:07;;;;;;;4.93;2.12;;;18.70;99.90;;;;;;7343090;32;20285;-69
2022/06/26 18:47:09;;;;;;;5.25;2.30;;;18.70;99.90;;;;;;7345731;32;20551;-70
2022/06/26 18:51:11;;;;;;;5.07;1.55;;;18.60;99.90;;;;;;7343727;32;20231;-71
2022/06/26 18:55:14;;;;;;;2.85;1.50;;;18.50;99.90;;;;;;7344594;32;20150;-71
2022/06/26 18:59:15;;;;;;;5.07;1.90;;;18.40;99.90;;;;;;7348790;32;20120;-71
2022/06/26 19:03:17;;;;;;;3.33;1.60;;;18.30;99.90;;;;;;7342135;32;20202;-70
2022/06/26 19:07:19;;;;;;;5.00;1.67;;;18.20;99.90;;;;;;7341792;32;20205;-71
2022/06/26 19:15:42;;;;;;;6.03;1.95;;;18.20;99.90;;;;;;7345380;32;20157;-69
2022/06/26 19:19:46;;;;;;;4.97;1.92;;;18.10;99.90;;;;;;7348260;32;20139;-69
2022/06/26 19:23:47;;;;;;;6.82;1.65;;;18.00;99.90;;;;;;7337658;32;20111;-71
2022/06/26 19:27:49;;;;;;;6.15;1.70;;;18.00;99.90;;;;;;7350070;32;20542;-70
2022/06/26 19:31:51;;;;;;;5.20;1.60;;;17.90;99.90;;;;;;7343595;32;20162;-72
2022/06/26 19:35:53;;;;;;;4.28;1.52;;;17.90;99.90;;;;;;7347282;32;20126;-71
2022/06/26 19:39:55;;;;;;;3.25;1.75;;;17.90;99.90;;;;;;7346149;32;20137;-69
2022/06/26 19:43:56;;;;;;;7.93;1.75;;;17.80;99.90;;;;;;7340218;32;20653;-70
2022/06/26 19:47:59;;;;;;;3.40;1.83;;;17.70;99.90;;;;;;7342509;32;20126;-71
2022/06/26 19:52:00;;;;;;;2.37;1.70;;;17.80;99.90;;;;;;7346831;32;20111;-69
2022/06/26 19:56:04;;;;;;;5.75;2.85;;;17.70;99.90;;;;;;7344522;32;20111;-67
2022/06/26 20:00:08;;;;;;;7.53;5.00;;;17.60;99.90;;;;;;7337021;32;20526;-70
2022/06/26 20:04:09;;;;;;;2.03;1.70;;;17.60;99.90;;;;;;7342323;32;20265;-68
2022/06/26 20:08:11;;;;;;;2.78;1.40;;;17.70;99.90;;;;;;7338136;32;20203;-67
2022/06/26 20:12:33;;;;;;;2.58;1.60;;;17.70;99.90;;;;;;7338999;32;20616;-68
2022/06/26 20:16:36;;;;;;;3.50;1.90;;;17.70;99.90;;;;;;7335358;32;20314;-66
2022/06/26 20:20:38;;;;;;;3.22;1.90;;;17.60;99.90;;;;;;7341124;32;20511;-67
2022/06/26 20:24:40;;;;;;;3.33;1.87;;;17.50;99.90;;;;;;7340067;32;20202;-66
2022/06/26 20:28:42;;;;;;;4.80;1.98;;;17.50;99.90;;;;;;7345018;32;20114;-66
2022/06/26 20:32:44;;;;;;;3.10;1.58;;;17.40;99.90;;;;;;7341313;32;20265;-67
2022/06/26 20:36:46;;;;;;;2.95;1.60;;;17.40;99.90;;;;;;7344379;32;20115;-65
2022/06/26 20:40:47;;;;;;;4.32;2.22;;;17.40;99.90;;;;;;7333380;32;20126;-67
2022/06/26 20:44:49;;;;;;;4.07;1.73;;;17.40;99.90;;;;;;7344654;32;20165;-65
2022/06/26 20:48:52;;;;;;;4.65;2.00;;;17.30;99.90;;;;;;7341859;32;20335;-66
2022/06/26 20:52:54;;;;;;;4.53;2.00;;;17.30;99.90;;;;;;7343820;32;20350;-67
2022/06/26 20:56:55;;;;;;;2.30;1.77;;;17.20;99.90;;;;;;7344117;32;20103;-66
2022/06/26 21:00:59;;;;;;;4.10;1.75;;;17.30;99.90;;;;;;7342795;32;20538;-66
2022/06/26 21:05:02;;;;;;;2.80;2.08;;;17.20;99.90;;;;;;7339760;32;20570;-66
2022/06/26 21:09:04;;;;;;;2.20;1.90;;;17.20;99.90;;;;;;7340943;32;20362;-64
2022/06/26 21:13:06;;;;;;;3.40;1.77;;;17.10;99.90;;;;;;7345671;32;20442;-64
2022/06/26 21:17:08;;;;;;;3.08;1.90;;;17.10;99.90;;;;;;7337609;32;20152;-62
2022/06/26 21:21:09;;;;;;;4.78;1.83;;;17.10;99.90;;;;;;7343420;32;20115;-62
2022/06/26 21:25:11;;;;;;;5.62;2.03;;;17.10;99.90;;;;;;7348686;32;20157;-63